Time;durP1;ratioP1;P1;durP2;ratioP2;P2;SDS_P1;SDS_P2;PMS_P1;PMS_P2;Temp;Humidity;BMP_temperature;BMP_pressure;BME280_temperature;BME280_humidity;BME280_pressure;Samples;Min_cycle;Max_cycle;Signal;HPM_P1;HPM_P2
2022/02/01 00:01:32;;;;;;;;;;;22.20;47.50;;;;;;5082131;28;20445;-72
2022/02/01 00:04:02;;;;;;;;;;;22.20;47.50;;;;;;5080564;28;20402;-72
2022/02/01 00:12:32;;;;;;;;;;;22.10;47.50;;;;;;5081168;28;19916;-70
2022/02/01 00:14:40;;;;;;;;;;;22.10;47.50;;;;;;5074100;28;20304;-70
2022/02/01 00:35:44;;;;;;;;;;;21.90;47.60;;;;;;5085661;28;19913;-70
2022/02/01 00:38:18;;;;;;;;;;;21.90;47.60;;;;;;5085910;28;19965;-70
2022/02/01 00:40:53;;;;;;;;;;;21.90;47.60;;;;;;5087013;28;19916;-71
2022/02/01 00:43:18;;;;;;;;;;;21.90;47.70;;;;;;5084081;28;19920;-70
2022/02/01 00:45:44;;;;;;;;;;;21.80;47.60;;;;;;5083456;28;19916;-71
2022/02/01 00:48:09;;;;;;;;;;;21.80;47.60;;;;;;5087026;28;19920;-70
2022/02/01 00:50:35;;;;;;;;;;;21.80;47.60;;;;;;5085788;28;19927;-71
2022/02/01 00:53:00;;;;;;;;;;;21.80;47.70;;;;;;5089378;28;19916;-71
2022/02/01 00:55:26;;;;;;;;;;;21.80;47.70;;;;;;5090445;28;19967;-71
2022/02/01 00:57:52;;;;;;;;;;;21.70;47.60;;;;;;5087026;28;20372;-70
2022/02/01 01:00:17;;;;;;;;;;;21.70;47.70;;;;;;5082351;28;19927;-70
2022/02/01 01:02:43;;;;;;;;;;;21.70;47.70;;;;;;5086443;28;19920;-73
2022/02/01 01:05:08;;;;;;;;;;;21.70;47.80;;;;;;5089395;28;19912;-70
2022/02/01 01:07:34;;;;;;;;;;;21.70;47.80;;;;;;5081281;28;19956;-72
2022/02/01 01:10:01;;;;;;;;;;;21.70;47.80;;;;;;5085379;28;19922;-72
2022/02/01 01:12:29;;;;;;;;;;;21.70;47.80;;;;;;5087412;28;19957;-70
2022/02/01 01:44:39;;;;;;;;;;;21.40;48.00;;;;;;5079352;28;20425;-69
2022/02/01 01:55:18;;;;;;;;;;;21.30;48.10;;;;;;5086693;28;20041;-71
2022/02/01 01:57:43;;;;;;;;;;;21.30;48.10;;;;;;5086997;28;19919;-70
2022/02/01 02:00:18;;;;;;;;;;;21.30;48.10;;;;;;5084678;28;19920;-69
2022/02/01 02:02:43;;;;;;;;;;;21.30;48.10;;;;;;5085692;28;19916;-71
2022/02/01 02:05:09;;;;;;;;;;;21.30;48.20;;;;;;5087509;28;19912;-69
2022/02/01 02:07:35;;;;;;;;;;;21.30;48.10;;;;;;5085910;28;19961;-70
2022/02/01 02:10:01;;;;;;;;;;;21.30;48.20;;;;;;5085604;28;19960;-69
2022/02/01 02:14:17;;;;;;;;;;;21.20;48.10;;;;;;5083201;28;20019;-71
2022/02/01 02:15:23;;;;;;;;;;;21.20;48.20;;;;;;5081290;28;19924;-69
2022/02/01 02:17:49;;;;;;;;;;;21.20;48.20;;;;;;5083926;28;19943;-70
2022/02/01 02:20:15;;;;;;;;;;;21.20;48.20;;;;;;5083414;28;19960;-71
2022/02/01 02:22:40;;;;;;;;;;;21.20;48.20;;;;;;5086905;28;19922;-71
2022/02/01 02:25:07;;;;;;;;;;;21.20;48.20;;;;;;5082195;28;19965;-71
2022/02/01 02:27:32;;;;;;;;;;;21.10;48.30;;;;;;5086903;28;19958;-70
2022/02/01 02:29:58;;;;;;;;;;;21.10;48.30;;;;;;5079534;28;19916;-70
2022/02/01 02:32:25;;;;;;;;;;;21.10;48.30;;;;;;5087178;28;19957;-71
2022/02/01 02:34:51;;;;;;;;;;;21.10;48.30;;;;;;5083607;28;20056;-70
2022/02/01 02:37:18;;;;;;;;;;;21.10;48.30;;;;;;5082201;28;20028;-71
2022/02/01 02:40:04;;;;;;;;;;;21.10;48.40;;;;;;5084766;28;20026;-70
2022/02/01 02:45:04;;;;;;;;;;;21.10;48.40;;;;;;5083453;28;19916;-70
2022/02/01 02:45:18;;;;;;;;;;;21.10;48.40;;;;;;5084234;28;19916;-70
2022/02/01 02:47:43;;;;;;;;;;;21.00;48.40;;;;;;5085992;28;20342;-71
2022/02/01 02:50:09;;;;;;;;;;;21.00;48.40;;;;;;5086747;28;19961;-71
2022/02/01 02:52:34;;;;;;;;;;;21.00;48.40;;;;;;5082978;28;20388;-73
2022/02/01 02:55:00;;;;;;;;;;;21.00;48.50;;;;;;5084255;28;19916;-71
2022/02/01 02:57:26;;;;;;;;;;;21.00;48.50;;;;;;5080706;28;20317;-71
2022/02/01 02:59:52;;;;;;;;;;;21.00;48.50;;;;;;5082128;28;19946;-69
2022/02/01 03:02:17;;;;;;;;;;;20.90;48.50;;;;;;5087312;28;19996;-72
2022/02/01 03:04:45;;;;;;;;;;;20.90;48.50;;;;;;5085806;28;19923;-70
2022/02/01 03:07:11;;;;;;;;;;;20.90;48.60;;;;;;5086310;28;20369;-69
2022/02/01 03:09:40;;;;;;;;;;;20.90;48.60;;;;;;5086346;28;20017;-70
2022/02/01 03:12:06;;;;;;;;;;;20.90;48.60;;;;;;5086588;28;20433;-69
2022/02/01 03:17:21;;;;;;;;;;;20.90;48.70;;;;;;5082450;28;19952;-70
2022/02/01 03:19:52;;;;;;;;;;;20.90;48.70;;;;;;5083864;28;19931;-71
2022/02/01 03:22:28;;;;;;;;;;;20.80;48.60;;;;;;5085116;28;20007;-69
2022/02/01 03:24:55;;;;;;;;;;;20.80;48.70;;;;;;5082233;28;19937;-71
2022/02/01 03:27:21;;;;;;;;;;;20.80;48.70;;;;;;5085842;28;20334;-71
2022/02/01 03:29:47;;;;;;;;;;;20.80;48.70;;;;;;5081929;28;20056;-70
2022/02/01 03:32:12;;;;;;;;;;;20.80;48.70;;;;;;5087181;28;19912;-69
2022/02/01 03:34:38;;;;;;;;;;;20.80;48.80;;;;;;5081161;28;20018;-71
2022/02/01 03:37:04;;;;;;;;;;;20.70;48.70;;;;;;5084068;28;19920;-71
2022/02/01 03:39:29;;;;;;;;;;;20.70;48.70;;;;;;5083880;28;19931;-71
2022/02/01 03:41:55;;;;;;;;;;;20.80;48.80;;;;;;5083718;28;19916;-69
2022/02/01 03:44:21;;;;;;;;;;;20.70;48.80;;;;;;5080629;28;19916;-70
2022/02/01 03:47:07;;;;;;;;;;;20.70;48.80;;;;;;5084171;28;20447;-72
2022/02/01 03:49:36;;;;;;;;;;;20.70;48.80;;;;;;5082426;28;20276;-69
2022/02/01 03:52:02;;;;;;;;;;;20.70;48.80;;;;;;5082221;28;19919;-71
2022/02/01 03:54:29;;;;;;;;;;;20.70;48.90;;;;;;5082483;28;20031;-70
2022/02/01 03:56:54;;;;;;;;;;;20.70;48.90;;;;;;5082887;28;19916;-69
2022/02/01 03:59:22;;;;;;;;;;;20.70;48.90;;;;;;5081898;28;20303;-71
2022/02/01 04:01:48;;;;;;;;;;;20.70;49.00;;;;;;5085409;28;19921;-69
2022/02/01 04:04:13;;;;;;;;;;;20.70;49.00;;;;;;5082717;28;19935;-71
2022/02/01 04:06:39;;;;;;;;;;;20.70;49.00;;;;;;5085999;28;19935;-69
2022/02/01 04:09:04;;;;;;;;;;;20.60;48.90;;;;;;5083207;28;19958;-71
2022/02/01 04:11:30;;;;;;;;;;;20.60;48.90;;;;;;5084286;28;20232;-71
2022/02/01 04:13:55;;;;;;;;;;;20.60;49.00;;;;;;5079312;28;20403;-71
2022/02/01 04:16:21;;;;;;;;;;;20.60;49.00;;;;;;5080539;28;19955;-71
2022/02/01 04:18:46;;;;;;;;;;;20.60;49.00;;;;;;5083212;28;19912;-71
2022/02/01 04:21:12;;;;;;;;;;;20.60;49.00;;;;;;5083798;28;19943;-70
2022/02/01 04:23:38;;;;;;;;;;;20.60;49.00;;;;;;5084653;28;19969;-71
2022/02/01 04:26:03;;;;;;;;;;;20.60;49.00;;;;;;5079305;28;20313;-71
2022/02/01 04:28:29;;;;;;;;;;;20.60;49.00;;;;;;5081594;28;19920;-71
2022/02/01 04:30:54;;;;;;;;;;;20.60;49.10;;;;;;5081972;28;20006;-70
2022/02/01 04:33:20;;;;;;;;;;;20.60;49.10;;;;;;5081290;28;19920;-71
2022/02/01 04:35:45;;;;;;;;;;;20.60;49.10;;;;;;5085106;28;22506;-70
2022/02/01 04:38:11;;;;;;;;;;;20.60;49.10;;;;;;5079955;28;19942;-71
2022/02/01 04:40:36;;;;;;;;;;;20.50;49.00;;;;;;5082317;28;20015;-71
2022/02/01 04:43:04;;;;;;;;;;;20.50;49.10;;;;;;5079196;28;20093;-71
2022/02/01 04:45:30;;;;;;;;;;;20.50;49.10;;;;;;5083297;28;19935;-71
2022/02/01 04:47:56;;;;;;;;;;;20.50;49.10;;;;;;5082369;28;19924;-69
2022/02/01 04:50:22;;;;;;;;;;;20.50;49.10;;;;;;5081486;28;19912;-70
2022/02/01 04:52:52;;;;;;;;;;;20.50;49.20;;;;;;5081540;28;20380;-71
2022/02/01 04:55:17;;;;;;;;;;;20.50;49.10;;;;;;5083480;28;19919;-72
2022/02/01 04:58:03;;;;;;;;;;;20.50;49.20;;;;;;5084707;28;20060;-69
2022/02/01 05:00:30;;;;;;;;;;;20.50;49.20;;;;;;5078588;28;19978;-70
2022/02/01 05:02:56;;;;;;;;;;;20.50;49.20;;;;;;5083431;28;19990;-70
2022/02/01 05:05:28;;;;;;;;;;;20.50;49.20;;;;;;5080021;28;19955;-72
2022/02/01 05:08:01;;;;;;;;;;;20.40;49.20;;;;;;5083783;28;19987;-71
2022/02/01 05:10:27;;;;;;;;;;;20.40;49.20;;;;;;5083368;28;19992;-71
2022/02/01 05:12:54;;;;;;;;;;;20.50;49.30;;;;;;5083731;28;20566;-72
2022/02/01 05:15:20;;;;;;;;;;;20.40;49.20;;;;;;5081477;28;20031;-70
2022/02/01 05:17:52;;;;;;;;;;;20.40;49.20;;;;;;5086106;28;19995;-71
2022/02/01 05:20:27;;;;;;;;;;;20.40;49.20;;;;;;5087681;28;19916;-71
2022/02/01 05:22:53;;;;;;;;;;;20.40;49.30;;;;;;5087546;28;19916;-71
2022/02/01 05:25:26;;;;;;;;;;;20.40;49.30;;;;;;5086877;28;19920;-69
2022/02/01 05:27:52;;;;;;;;;;;20.40;49.30;;;;;;5088022;28;19988;-71
2022/02/01 05:30:17;;;;;;;;;;;20.40;49.30;;;;;;5081390;28;20413;-71
2022/02/01 05:32:43;;;;;;;;;;;20.40;49.30;;;;;;5087148;28;19934;-71
2022/02/01 05:35:08;;;;;;;;;;;20.40;49.30;;;;;;5086114;28;19920;-71
2022/02/01 05:37:34;;;;;;;;;;;20.40;49.30;;;;;;5087621;28;19916;-71
2022/02/01 05:39:59;;;;;;;;;;;20.40;49.30;;;;;;5087087;28;19920;-71
2022/02/01 05:42:35;;;;;;;;;;;20.40;49.40;;;;;;5088314;28;19955;-71
2022/02/01 05:45:01;;;;;;;;;;;20.40;49.40;;;;;;5076210;28;20011;-70
2022/02/01 05:47:27;;;;;;;;;;;20.40;49.40;;;;;;5084506;28;20197;-71
2022/02/01 05:49:52;;;;;;;;;;;20.40;49.40;;;;;;5086549;28;20503;-70
2022/02/01 05:52:18;;;;;;;;;;;20.40;49.40;;;;;;5085355;28;19920;-71
2022/02/01 05:54:43;;;;;;;;;;;20.40;49.40;;;;;;5082803;28;20363;-68
2022/02/01 05:57:09;;;;;;;;;;;20.30;49.40;;;;;;5087453;28;20407;-71
2022/02/01 05:59:37;;;;;;;;;;;20.30;49.40;;;;;;5084031;28;19919;-69
2022/02/01 06:02:03;;;;;;;;;;;20.30;49.40;;;;;;5087915;28;20002;-71
2022/02/01 06:04:29;;;;;;;;;;;20.40;49.50;;;;;;5087567;28;19956;-70
2022/02/01 06:06:54;;;;;;;;;;;20.30;49.50;;;;;;5080567;28;19920;-71
2022/02/01 06:09:19;;;;;;;;;;;20.30;50.00;;;;;;5078089;28;19932;-70
2022/02/01 06:11:45;;;;;;;;;;;20.30;49.50;;;;;;5083314;28;20039;-70
2022/02/01 06:14:10;;;;;;;;;;;20.30;49.50;;;;;;5079389;28;19931;-69
2022/02/01 06:16:36;;;;;;;;;;;20.40;49.60;;;;;;5082892;28;19920;-68
2022/02/01 06:19:01;;;;;;;;;;;20.30;49.50;;;;;;5084841;28;20003;-67
2022/02/01 06:21:27;;;;;;;;;;;20.40;50.00;;;;;;5084965;28;19916;-67
2022/02/01 06:23:52;;;;;;;;;;;20.50;50.60;;;;;;5090960;28;19920;-68
2022/02/01 06:26:21;;;;;;;;;;;20.60;50.40;;;;;;5093497;28;19920;-69
2022/02/01 06:28:47;;;;;;;;;;;20.80;50.40;;;;;;5090091;28;19924;-68
2022/02/01 06:31:12;;;;;;;;;;;20.90;50.70;;;;;;5095252;28;19920;-72
2022/02/01 06:33:38;;;;;;;;;;;21.00;50.90;;;;;;5088745;28;19987;-72
2022/02/01 06:36:04;;;;;;;;;;;21.20;50.90;;;;;;5090496;28;20390;-68
2022/02/01 06:38:32;;;;;;;;;;;21.30;50.90;;;;;;5090862;28;19923;-69
2022/02/01 06:40:58;;;;;;;;;;;21.30;51.00;;;;;;5089788;28;20007;-71
2022/02/01 06:43:26;;;;;;;;;;;21.50;51.10;;;;;;5081025;28;20390;-70
2022/02/01 06:45:52;;;;;;;;;;;21.60;51.10;;;;;;5087922;28;20018;-72
2022/02/01 06:48:18;;;;;;;;;;;21.70;50.70;;;;;;5093726;28;19959;-67
2022/02/01 06:50:43;;;;;;;;;;;21.80;50.60;;;;;;5085905;28;20187;-68
2022/02/01 06:53:09;;;;;;;;;;;21.70;50.60;;;;;;5085613;28;20252;-68
2022/02/01 06:58:09;;;;;;;;;;;21.80;50.70;;;;;;5091886;28;19916;-67
2022/02/01 07:00:34;;;;;;;;;;;21.80;50.70;;;;;;5090244;28;20363;-68
2022/02/01 07:03:00;;;;;;;;;;;21.80;50.70;;;;;;5089844;28;19920;-67
2022/02/01 07:05:25;;;;;;;;;;;21.80;50.80;;;;;;5092773;28;19912;-68
2022/02/01 07:07:51;;;;;;;;;;;21.80;50.70;;;;;;5090560;28;19912;-69
2022/02/01 07:10:17;;;;;;;;;;;21.80;50.70;;;;;;5092223;28;19923;-68
2022/02/01 07:12:42;;;;;;;;;;;21.90;50.70;;;;;;5090287;28;19912;-70
2022/02/01 07:15:08;;;;;;;;;;;21.90;50.70;;;;;;5086334;28;19923;-69
2022/02/01 07:17:47;;;;;;;;;;;21.90;50.60;;;;;;5086523;28;20361;-70
2022/02/01 07:20:13;;;;;;;;;;;22.00;50.50;;;;;;5088692;28;19959;-66
2022/02/01 07:22:41;;;;;;;;;;;22.00;50.50;;;;;;5089909;28;20443;-68
2022/02/01 07:25:16;;;;;;;;;;;22.00;50.30;;;;;;5088370;28;19992;-72
2022/02/01 07:27:47;;;;;;;;;;;22.00;50.30;;;;;;5090132;28;19967;-68
2022/02/01 07:30:14;;;;;;;;;;;22.10;50.30;;;;;;5091529;28;19919;-69
2022/02/01 07:32:40;;;;;;;;;;;22.10;50.50;;;;;;5087150;28;19912;-72
2022/02/01 07:35:06;;;;;;;;;;;22.10;50.40;;;;;;5086830;28;19916;-70
2022/02/01 07:37:31;;;;;;;;;;;22.10;50.50;;;;;;5087084;28;19919;-69
2022/02/01 07:39:57;;;;;;;;;;;22.20;50.70;;;;;;5085677;28;19920;-68
2022/02/01 07:42:22;;;;;;;;;;;22.20;50.50;;;;;;5086908;28;19912;-70
2022/02/01 07:44:49;;;;;;;;;;;22.20;50.70;;;;;;5084946;28;19916;-69
2022/02/01 07:47:21;;;;;;;;;;;22.20;50.60;;;;;;5086883;28;19965;-68
2022/02/01 07:49:49;;;;;;;;;;;22.30;50.70;;;;;;5091835;28;19912;-67
2022/02/01 07:52:15;;;;;;;;;;;22.30;50.60;;;;;;5083114;28;20004;-72
2022/02/01 07:54:41;;;;;;;;;;;22.30;50.70;;;;;;5087877;28;20397;-70
2022/02/01 07:57:06;;;;;;;;;;;22.30;50.70;;;;;;5084659;28;19969;-71
2022/02/01 07:59:32;;;;;;;;;;;22.40;50.60;;;;;;5083364;28;20311;-70
2022/02/01 08:01:58;;;;;;;;;;;22.40;50.40;;;;;;5086738;28;20398;-74
2022/02/01 08:04:24;;;;;;;;;;;22.40;50.70;;;;;;5084563;28;19916;-71
2022/02/01 08:06:49;;;;;;;;;;;22.40;49.60;;;;;;5085521;28;19920;-72
2022/02/01 08:09:24;;;;;;;;;;;22.40;48.10;;;;;;5091190;28;19931;-71
2022/02/01 08:11:50;;;;;;;;;;;22.40;48.20;;;;;;5089391;28;19912;-65
2022/02/01 08:17:01;;;;;;;;;;;22.40;48.70;;;;;;5082838;28;20027;-68
2022/02/01 08:19:37;;;;;;;;;;;22.50;49.10;;;;;;5088767;28;20390;-66
2022/02/01 08:22:09;;;;;;;;;;;22.50;48.90;;;;;;5084564;28;19938;-70
2022/02/01 08:24:34;;;;;;;;;;;22.50;49.00;;;;;;5090613;28;19916;-71
2022/02/01 08:27:00;;;;;;;;;;;22.50;49.30;;;;;;5094144;28;19916;-71
2022/02/01 08:29:25;;;;;;;;;;;22.50;49.30;;;;;;5090351;28;20427;-72
2022/02/01 08:31:51;;;;;;;;;;;22.60;49.50;;;;;;5085987;28;19912;-69
2022/02/01 08:34:17;;;;;;;;;;;22.60;49.60;;;;;;5091324;28;19958;-71
2022/02/01 08:36:43;;;;;;;;;;;22.60;49.80;;;;;;5084805;28;19923;-71
2022/02/01 08:39:08;;;;;;;;;;;22.60;50.00;;;;;;5088476;28;19947;-66
2022/02/01 08:41:35;;;;;;;;;;;22.60;49.90;;;;;;5086278;28;19924;-70
2022/02/01 08:44:02;;;;;;;;;;;22.70;50.50;;;;;;5084282;28;20006;-68
2022/02/01 08:46:27;;;;;;;;;;;22.70;50.20;;;;;;5084860;28;19919;-72
2022/02/01 08:48:53;;;;;;;;;;;22.80;50.70;;;;;;5086091;28;19920;-73
2022/02/01 08:51:21;;;;;;;;;;;22.80;50.80;;;;;;5087772;28;20299;-66
2022/02/01 08:53:53;;;;;;;;;;;22.80;50.90;;;;;;5087923;28;20332;-66
2022/02/01 08:59:15;;;;;;;;;;;22.90;51.10;;;;;;5048785;28;19920;-68
2022/02/01 09:01:41;;;;;;;;;;;22.90;51.50;;;;;;5087693;28;19916;-74
2022/02/01 09:04:07;;;;;;;;;;;22.90;51.60;;;;;;5088349;28;19916;-68
2022/02/01 09:06:34;;;;;;;;;;;23.00;51.60;;;;;;5089553;28;19912;-70
2022/02/01 09:08:59;;;;;;;;;;;23.00;51.90;;;;;;5087164;28;20309;-71
2022/02/01 09:11:25;;;;;;;;;;;23.00;51.70;;;;;;5085770;28;19920;-70
2022/02/01 09:13:51;;;;;;;;;;;23.00;52.30;;;;;;5085689;28;19916;-66
2022/02/01 09:16:16;;;;;;;;;;;23.10;52.20;;;;;;5084266;28;20053;-66
2022/02/01 09:18:42;;;;;;;;;;;23.10;52.30;;;;;;5088374;28;20369;-67
2022/02/01 09:21:08;;;;;;;;;;;23.10;52.60;;;;;;5090541;28;20343;-71
2022/02/01 09:23:35;;;;;;;;;;;23.10;52.50;;;;;;5086609;28;19909;-66
2022/02/01 09:26:00;;;;;;;;;;;23.10;52.70;;;;;;5089881;28;19916;-68
2022/02/01 09:28:27;;;;;;;;;;;23.20;52.90;;;;;;5089499;28;20335;-68
2022/02/01 09:30:53;;;;;;;;;;;23.20;52.60;;;;;;5087919;28;19912;-72
2022/02/01 09:33:18;;;;;;;;;;;23.20;52.90;;;;;;5092063;28;19919;-71
2022/02/01 09:35:43;;;;;;;;;;;23.20;52.80;;;;;;5088031;28;19999;-69
2022/02/01 09:38:10;;;;;;;;;;;23.20;52.80;;;;;;5089073;28;19914;-69
2022/02/01 09:40:36;;;;;;;;;;;23.20;53.00;;;;;;5088738;28;19932;-68
2022/02/01 09:43:01;;;;;;;;;;;23.20;52.80;;;;;;5082978;28;19966;-70
2022/02/01 09:45:29;;;;;;;;;;;23.30;53.30;;;;;;5084430;28;19931;-67
2022/02/01 09:47:59;;;;;;;;;;;23.30;53.10;;;;;;5084134;28;19912;-69
2022/02/01 09:50:26;;;;;;;;;;;23.40;53.30;;;;;;5088705;28;19916;-71
2022/02/01 09:52:52;;;;;;;;;;;23.40;53.40;;;;;;5096740;27;20048;-70
2022/02/01 09:55:20;;;;;;;;;;;23.40;53.50;;;;;;5081550;28;19920;-71
2022/02/01 09:57:50;;;;;;;;;;;23.40;53.60;;;;;;5086058;28;19923;-72
2022/02/01 10:00:21;;;;;;;;;;;23.40;53.40;;;;;;5081503;28;19916;-69
2022/02/01 10:02:47;;;;;;;;;;;23.50;53.50;;;;;;5081991;28;20055;-71
2022/02/01 10:05:13;;;;;;;;;;;23.50;53.80;;;;;;5086211;28;19912;-70
2022/02/01 10:07:49;;;;;;;;;;;23.50;54.00;;;;;;5086322;28;20025;-70
2022/02/01 10:10:14;;;;;;;;;;;23.50;53.90;;;;;;5081037;28;19916;-70
2022/02/01 10:12:40;;;;;;;;;;;23.50;53.70;;;;;;5087854;28;19916;-72
2022/02/01 10:15:17;;;;;;;;;;;23.50;53.80;;;;;;5084532;28;20310;-70
2022/02/01 10:17:47;;;;;;;;;;;23.60;54.10;;;;;;5078100;28;19916;-70
2022/02/01 10:20:13;;;;;;;;;;;23.50;48.80;;;;;;5084356;28;19943;-72
2022/02/01 10:22:39;;;;;;;;;;;23.40;46.60;;;;;;5088183;28;20025;-69
2022/02/01 10:25:06;;;;;;;;;;;23.40;46.00;;;;;;5081096;28;20006;-67
2022/02/01 10:27:33;;;;;;;;;;;23.40;46.20;;;;;;5083224;28;19919;-68
2022/02/01 10:30:09;;;;;;;;;;;23.30;46.40;;;;;;5080117;28;19923;-72
2022/02/01 10:32:55;;;;;;;;;;;23.30;46.20;;;;;;5086617;28;19978;-72
2022/02/01 10:37:58;;;;;;;;;;;23.30;46.50;;;;;;5083554;28;19912;-73
2022/02/01 10:40:23;;;;;;;;;;;23.20;46.50;;;;;;5084044;28;19916;-74
2022/02/01 10:43:01;;;;;;;;;;;23.20;46.50;;;;;;5080869;28;19973;-70
2022/02/01 10:45:27;;;;;;;;;;;23.20;46.50;;;;;;5086616;28;19913;-70
2022/02/01 10:47:52;;;;;;;;;;;23.20;46.60;;;;;;5089104;28;20304;-70
2022/02/01 10:50:18;;;;;;;;;;;23.10;46.10;;;;;;5083246;28;20003;-71
2022/02/01 10:52:44;;;;;;;;;;;23.10;46.90;;;;;;5078810;28;19917;-68
2022/02/01 10:55:10;;;;;;;;;;;23.10;46.30;;;;;;5083562;28;19920;-72
2022/02/01 10:57:36;;;;;;;;;;;23.10;46.30;;;;;;5083677;28;20638;-71
2022/02/01 11:00:04;;;;;;;;;;;23.10;46.50;;;;;;5083489;28;19947;-70
2022/02/01 11:02:31;;;;;;;;;;;23.10;46.40;;;;;;5086587;28;19926;-69
2022/02/01 11:04:58;;;;;;;;;;;23.10;46.40;;;;;;5084959;28;19998;-68
2022/02/01 11:07:23;;;;;;;;;;;23.10;46.50;;;;;;5084508;28;20355;-71
2022/02/01 11:09:49;;;;;;;;;;;23.00;46.30;;;;;;5085658;28;19969;-71
2022/02/01 11:12:15;;;;;;;;;;;23.00;46.30;;;;;;5082788;28;19927;-71
2022/02/01 11:14:41;;;;;;;;;;;23.00;46.40;;;;;;5081514;28;19916;-69
2022/02/01 11:17:08;;;;;;;;;;;22.90;46.30;;;;;;5086730;28;20295;-71
2022/02/01 11:19:44;;;;;;;;;;;22.90;46.10;;;;;;5083246;28;20027;-68
2022/02/01 11:22:17;;;;;;;;;;;22.90;46.20;;;;;;5100791;28;19978;-70
2022/02/01 11:24:49;;;;;;;;;;;22.90;46.30;;;;;;5085153;28;19912;-71
2022/02/01 11:27:19;;;;;;;;;;;22.90;46.60;;;;;;5083411;28;19916;-72
2022/02/01 11:30:11;;;;;;;;;;;22.90;46.70;;;;;;5084512;28;19938;-67
2022/02/01 11:32:37;;;;;;;;;;;22.90;46.90;;;;;;5082699;28;20469;-68
2022/02/01 11:35:04;;;;;;;;;;;22.90;47.00;;;;;;5094291;28;20397;-70
2022/02/01 11:37:30;;;;;;;;;;;22.90;47.00;;;;;;5081660;28;19990;-69
2022/02/01 11:39:56;;;;;;;;;;;22.90;47.10;;;;;;5082137;28;20014;-67
2022/02/01 11:42:29;;;;;;;;;;;22.90;47.10;;;;;;5083786;28;19970;-71
2022/02/01 11:45:02;;;;;;;;;;;22.90;47.10;;;;;;5077106;28;19931;-69
2022/02/01 11:47:32;;;;;;;;;;;22.90;47.10;;;;;;5087181;28;20295;-68
2022/02/01 11:49:59;;;;;;;;;;;22.90;47.20;;;;;;5085615;28;19920;-72
2022/02/01 11:52:25;;;;;;;;;;;22.90;47.20;;;;;;5076845;28;19912;-72
2022/02/01 11:55:04;;;;;;;;;;;22.90;47.30;;;;;;5084169;28;20283;-68
2022/02/01 11:57:31;;;;;;;;;;;22.90;47.20;;;;;;5082946;28;19930;-71
2022/02/01 11:59:58;;;;;;;;;;;22.90;47.20;;;;;;5083091;28;19916;-71
2022/02/01 12:02:35;;;;;;;;;;;22.90;47.20;;;;;;5081052;28;19916;-71
2022/02/01 12:05:08;;;;;;;;;;;22.90;47.10;;;;;;5085577;28;19916;-70
2022/02/01 12:07:40;;;;;;;;;;;22.90;47.20;;;;;;5085324;28;19916;-71
2022/02/01 12:10:16;;;;;;;;;;;22.90;47.10;;;;;;5077156;28;19923;-69
2022/02/01 12:12:42;;;;;;;;;;;22.90;47.10;;;;;;5086183;28;20234;-70
2022/02/01 12:15:08;;;;;;;;;;;22.90;47.20;;;;;;5079160;28;19913;-70
2022/02/01 12:17:34;;;;;;;;;;;22.90;47.10;;;;;;5083555;28;19931;-73
2022/02/01 12:20:01;;;;;;;;;;;23.00;47.10;;;;;;5081305;28;20323;-69
2022/02/01 12:22:36;;;;;;;;;;;23.00;47.10;;;;;;5082163;28;20414;-71
2022/02/01 12:25:06;;;;;;;;;;;23.00;47.10;;;;;;5085147;28;19996;-73
2022/02/01 12:27:35;;;;;;;;;;;23.00;47.10;;;;;;5084395;28;19931;-70
2022/02/01 12:30:02;;;;;;;;;;;23.00;47.00;;;;;;5082099;28;19916;-70
2022/02/01 12:32:28;;;;;;;;;;;23.00;47.00;;;;;;5087066;28;20146;-70
2022/02/01 12:34:53;;;;;;;;;;;23.00;47.00;;;;;;5085567;28;20120;-71
2022/02/01 12:37:22;;;;;;;;;;;23.00;47.00;;;;;;5082774;28;19912;-72
2022/02/01 12:39:58;;;;;;;;;;;23.00;47.00;;;;;;5082070;28;20053;-70
2022/02/01 12:42:37;;;;;;;;;;;23.00;47.00;;;;;;5078667;28;19938;-71
2022/02/01 12:47:48;;;;;;;;;;;23.00;47.00;;;;;;5083540;28;20333;-69
2022/02/01 12:50:14;;;;;;;;;;;23.00;47.00;;;;;;5079938;28;20030;-70
2022/02/01 12:52:40;;;;;;;;;;;23.00;46.90;;;;;;5080549;28;19916;-69
2022/02/01 12:55:13;;;;;;;;;;;23.00;46.90;;;;;;5085985;28;19993;-69
2022/02/01 12:57:42;;;;;;;;;;;23.00;46.90;;;;;;5086628;28;20001;-69
2022/02/01 13:00:13;;;;;;;;;;;23.00;47.00;;;;;;5075969;28;20655;-70
2022/02/01 13:02:39;;;;;;;;;;;23.10;47.00;;;;;;5082585;28;19920;-68
2022/02/01 13:05:06;;;;;;;;;;;23.10;46.90;;;;;;5085522;28;20279;-70
2022/02/01 13:14:23;;;;;;;;;;;23.00;46.80;;;;;;5081290;28;19923;-70
2022/02/01 13:21:30;;;;;;;;;;;23.10;46.70;;;;;;5087178;28;19998;-72
2022/02/01 13:23:56;;;;;;;;;;;23.10;46.60;;;;;;5084319;28;20546;-70
2022/02/01 13:26:25;;;;;;;;;;;23.10;46.60;;;;;;5083663;28;20211;-69
2022/02/01 13:29:02;;;;;;;;;;;23.10;46.60;;;;;;5079319;28;19916;-69
2022/02/01 13:31:31;;;;;;;;;;;23.10;46.50;;;;;;5083484;28;19916;-71
2022/02/01 13:34:03;;;;;;;;;;;23.10;47.60;;;;;;5083895;28;20379;-71
2022/02/01 13:36:29;;;;;;;;;;;23.20;47.00;;;;;;5086911;28;20303;-70
2022/02/01 13:38:56;;;;;;;;;;;23.20;46.70;;;;;;5080490;28;20015;-71
2022/02/01 13:41:24;;;;;;;;;;;23.20;46.60;;;;;;5085084;28;19927;-72
2022/02/01 13:43:50;;;;;;;;;;;23.20;46.50;;;;;;5082122;28;19916;-72
2022/02/01 13:46:17;;;;;;;;;;;23.20;46.50;;;;;;5079839;28;19923;-71
2022/02/01 13:48:42;;;;;;;;;;;23.10;46.30;;;;;;5080562;28;19920;-71
2022/02/01 13:51:08;;;;;;;;;;;23.10;46.50;;;;;;5084979;28;20653;-70
2022/02/01 13:53:35;;;;;;;;;;;23.20;46.30;;;;;;5082196;28;19927;-67
2022/02/01 13:56:08;;;;;;;;;;;23.20;46.20;;;;;;5086405;28;19916;-67
2022/02/01 13:58:35;;;;;;;;;;;23.20;47.10;;;;;;5079160;28;19934;-69
2022/02/01 14:01:01;;;;;;;;;;;23.20;46.40;;;;;;5084283;28;19919;-71
2022/02/01 14:09:30;;;;;;;;;;;23.20;46.50;;;;;;5067194;28;19923;-72
2022/02/01 14:16:04;;;;;;;;;;;23.20;45.20;;;;;;5077838;28;19916;-72
2022/02/01 14:25:46;;;;;;;;;;;23.10;45.10;;;;;;5080466;28;20052;-72
2022/02/01 14:36:29;;;;;;;;;;;22.90;45.20;;;;;;5086969;28;20558;-71
2022/02/01 14:44:42;;;;;;;;;;;22.80;45.30;;;;;;5081163;28;20390;-73
2022/02/01 14:47:12;;;;;;;;;;;22.80;45.30;;;;;;5085423;28;20423;-69
2022/02/01 14:49:38;;;;;;;;;;;22.70;45.30;;;;;;5086058;28;19965;-71
2022/02/01 14:52:05;;;;;;;;;;;22.70;45.40;;;;;;5079426;28;19916;-70
2022/02/01 14:54:43;;;;;;;;;;;22.70;45.40;;;;;;5082385;28;19935;-72
2022/02/01 15:11:21;;;;;;;;;;;22.50;45.60;;;;;;5086612;28;20003;-71
2022/02/01 15:13:24;;;;;;;;;;;22.40;45.50;;;;;;5079940;28;19981;-73
2022/02/01 15:15:50;;;;;;;;;;;22.40;45.50;;;;;;5083569;28;20339;-73
2022/02/01 15:18:15;;;;;;;;;;;22.40;45.60;;;;;;5082641;28;19924;-71
2022/02/01 15:20:41;;;;;;;;;;;22.40;46.10;;;;;;5087633;28;19950;-68
2022/02/01 15:23:06;;;;;;;;;;;22.30;45.80;;;;;;5085363;28;19935;-73
2022/02/01 15:25:32;;;;;;;;;;;22.30;45.50;;;;;;5084709;28;19916;-71
2022/02/01 15:27:57;;;;;;;;;;;22.20;45.50;;;;;;5083735;28;19916;-69
2022/02/01 15:30:23;;;;;;;;;;;22.30;45.70;;;;;;5083068;28;19961;-68
2022/02/01 15:32:49;;;;;;;;;;;22.30;45.70;;;;;;5084780;28;20418;-70
2022/02/01 15:35:16;;;;;;;;;;;22.20;45.70;;;;;;5081197;28;19912;-69
2022/02/01 15:37:44;;;;;;;;;;;22.20;45.60;;;;;;5081735;28;19919;-71
2022/02/01 15:59:20;;;;;;;;;;;22.00;45.90;;;;;;5081186;28;20311;-71
2022/02/01 16:02:01;;;;;;;;;;;22.00;45.80;;;;;;5081422;28;19916;-72
2022/02/01 16:04:28;;;;;;;;;;;22.00;45.60;;;;;;5081823;28;19919;-72
2022/02/01 16:06:59;;;;;;;;;;;21.90;45.70;;;;;;5082984;28;19961;-71
2022/02/01 16:11:53;;;;;;;;;;;21.90;45.80;;;;;;5084354;28;19912;-73
2022/02/01 16:14:18;;;;;;;;;;;21.90;45.90;;;;;;5081022;28;19961;-73
2022/02/01 16:16:44;;;;;;;;;;;21.90;45.90;;;;;;5082553;28;19916;-71
2022/02/01 16:19:11;;;;;;;;;;;21.80;45.90;;;;;;5083226;28;19920;-70
2022/02/01 16:21:37;;;;;;;;;;;21.80;45.70;;;;;;5086208;28;20253;-70
2022/02/01 16:24:03;;;;;;;;;;;21.80;45.90;;;;;;5083302;28;19916;-68
2022/02/01 16:26:28;;;;;;;;;;;21.80;45.90;;;;;;5075178;28;20011;-71
2022/02/01 16:28:54;;;;;;;;;;;21.70;45.90;;;;;;5070611;28;19932;-70
2022/02/01 16:31:20;;;;;;;;;;;21.70;46.00;;;;;;5081602;28;19961;-70
2022/02/01 16:33:46;;;;;;;;;;;21.70;46.10;;;;;;5081243;28;20571;-71
2022/02/01 16:36:19;;;;;;;;;;;21.70;46.10;;;;;;5078851;28;19924;-67
2022/02/01 16:38:44;;;;;;;;;;;21.70;46.20;;;;;;5074570;28;20032;-69
2022/02/01 16:41:10;;;;;;;;;;;21.70;46.20;;;;;;5076433;28;20579;-71
2022/02/01 16:43:37;;;;;;;;;;;21.70;46.20;;;;;;5073526;28;19986;-68
2022/02/01 16:46:03;;;;;;;;;;;21.70;46.20;;;;;;5074746;28;19978;-67
2022/02/01 16:48:29;;;;;;;;;;;21.80;46.30;;;;;;5076896;28;20683;-70
2022/02/01 16:50:54;;;;;;;;;;;21.70;46.20;;;;;;5074562;28;19916;-69
2022/02/01 16:53:24;;;;;;;;;;;21.80;46.20;;;;;;5069483;28;19963;-71
2022/02/01 16:56:03;;;;;;;;;;;21.80;46.20;;;;;;5071840;28;20367;-67